Time;durP1;ratioP1;P1;durP2;ratioP2;P2;SDS_P1;SDS_P2;PMS_P1;PMS_P2;Temp;Humidity;BMP_temperature;BMP_pressure;BME280_temperature;BME280_humidity;BME280_pressure;Samples;Min_cycle;Max_cycle;Signal;HPM_P1;HPM_P2
2021/08/05 00:01:45;;;;;;;12.75;11.45;;;;;;;17.87;85.43;98423.81;5034751;28;20035;-51
2021/08/05 00:04:12;;;;;;;62.22;56.58;;;;;;;17.76;85.48;98425.56;5034648;28;20018;-51
2021/08/05 00:06:38;;;;;;;68.20;62.20;;;;;;;18.06;86.44;98423.41;5034590;28;20037;-51
2021/08/05 00:09:04;;;;;;;6.97;6.28;;;;;;;18.42;85.91;98429.75;5034554;28;20021;-51
2021/08/05 00:11:30;;;;;;;15.25;13.70;;;;;;;18.45;84.32;98423.09;5034451;28;20506;-51
2021/08/05 00:13:56;;;;;;;61.55;55.88;;;;;;;18.49;84.63;98417.03;5033142;28;20022;-51
2021/08/05 00:16:22;;;;;;;27.42;25.20;;;;;;;18.80;84.68;98411.09;5033095;28;20040;-51
2021/08/05 00:18:48;;;;;;;12.43;11.20;;;;;;;19.04;84.00;98406.09;5034296;28;20029;-50
2021/08/05 00:21:19;;;;;;;12.05;5.35;;;;;;;19.14;83.16;98414.09;5034104;28;20045;-51
2021/08/05 00:23:45;;;;;;;7.18;4.43;;;;;;;19.01;83.11;98407.41;5034336;28;20036;-51
2021/08/05 00:26:11;;;;;;;9.85;6.65;;;;;;;18.82;83.27;98409.75;5034227;28;20021;-51
2021/08/05 00:28:38;;;;;;;9.88;6.65;;;;;;;18.50;83.87;98410.66;5034185;28;20029;-51
2021/08/05 00:31:04;;;;;;;10.43;9.43;;;;;;;18.40;84.86;98407.94;5034163;28;20084;-51
2021/08/05 00:33:30;;;;;;;15.45;14.02;;;;;;;18.36;85.66;98397.03;5034156;28;20032;-51
2021/08/05 00:35:56;;;;;;;24.02;21.75;;;;;;;18.53;85.75;98388.06;5034084;28;20491;-51
2021/08/05 00:38:22;;;;;;;19.45;17.55;;;;;;;18.69;85.56;98389.75;5049276;28;20373;-51
2021/08/05 00:40:47;;;;;;;16.58;6.22;;;;;;;18.70;84.51;98387.88;5033975;28;20022;-51
2021/08/05 00:43:13;;;;;;;7.47;5.90;;;;;;;18.48;84.04;98377.44;5034217;28;20036;-51
2021/08/05 00:45:39;;;;;;;23.23;17.73;;;;;;;18.20;83.66;98375.97;5049230;28;20039;-51
2021/08/05 00:48:05;;;;;;;8.82;7.30;;;;;;;17.99;84.63;98373.19;5033830;28;20061;-51
2021/08/05 00:50:32;;;;;;;48.25;43.90;;;;;;;17.94;84.74;98379.25;5033799;28;20026;-51
2021/08/05 00:52:58;;;;;;;35.45;32.10;;;;;;;18.01;85.43;98363.13;5049020;28;20581;-50
2021/08/05 00:55:24;;;;;;;7.25;6.05;;;;;;;18.07;85.17;98374.53;5032397;28;20079;-51
2021/08/05 00:57:50;;;;;;;11.95;8.48;;;;;;;18.05;84.96;98371.34;5048866;28;20025;-51
2021/08/05 01:00:15;;;;;;;11.52;10.52;;;;;;;18.22;85.42;98366.66;5033650;28;20400;-50
2021/08/05 01:02:48;;;;;;;25.17;22.70;;;;;;;18.59;85.11;98360.44;5033578;28;20447;-51
2021/08/05 01:05:17;;;;;;;22.85;20.92;;;;;;;18.93;84.29;98365.38;5033548;28;20510;-51
2021/08/05 01:08:08;;;;;;;7.45;4.65;;;;;;;18.84;81.19;98354.44;5033449;28;20057;-51
2021/08/05 01:10:53;;;;;;;6.97;6.20;;;;;;;18.12;81.11;98362.09;5033694;28;20029;-50
2021/08/05 01:13:34;;;;;;;7.68;6.90;;;;;;;17.52;82.38;98361.41;5032124;28;20060;-50
2021/08/05 01:16:14;;;;;;;24.42;22.13;;;;;;;17.18;83.42;98360.84;5048565;28;20034;-50
2021/08/05 01:18:41;;;;;;;6.32;5.15;;;;;;;16.93;83.95;98356.09;5033274;28;20124;-51
2021/08/05 01:21:31;;;;;;;12.95;11.75;;;;;;;16.78;84.08;98356.69;5033025;28;20057;-51
2021/08/05 01:24:06;;;;;;;18.25;16.10;;;;;;;16.59;84.37;98348.28;5032697;28;20033;-51
2021/08/05 01:26:47;;;;;;;17.60;15.73;;;;;;;16.47;85.08;98345.75;5048464;28;20029;-50
2021/08/05 01:29:14;;;;;;;11.07;9.98;;;;;;;16.43;85.31;98342.00;5033113;28;20034;-51
2021/08/05 01:31:42;;;;;;;11.35;10.38;;;;;;;16.38;85.69;98344.59;5033036;28;20029;-51
2021/08/05 01:34:16;;;;;;;19.83;18.13;;;;;;;16.42;85.73;98347.53;5048256;28;20061;-51
2021/08/05 01:36:48;;;;;;;7.65;6.88;;;;;;;16.47;85.80;98350.28;5048239;28;20083;-51
2021/08/05 01:39:14;;;;;;;7.00;3.13;;;;;;;16.56;86.39;98351.44;5032804;28;20087;-50
2021/08/05 01:41:41;;;;;;;17.30;15.60;;;;;;;16.74;86.45;98353.78;5031524;28;20030;-51
2021/08/05 01:44:10;;;;;;;8.05;4.13;;;;;;;16.96;86.42;98358.25;5048065;28;20017;-51
2021/08/05 01:46:37;;;;;;;39.60;36.13;;;;;;;17.09;86.19;98359.72;5048001;28;20033;-51
2021/08/05 01:49:03;;;;;;;10.50;8.18;;;;;;;17.55;86.79;98376.81;5032629;28;20119;-51
2021/08/05 01:51:30;;;;;;;7.78;4.35;;;;;;;17.95;85.66;98374.75;5047944;28;20029;-51
2021/08/05 01:53:56;;;;;;;6.75;6.15;;;;;;;17.94;84.83;98383.78;5032612;28;20021;-51
2021/08/05 01:56:25;;;;;;;14.32;12.15;;;;;;;17.82;84.23;98380.47;5047816;28;20108;-51
2021/08/05 01:58:57;;;;;;;6.65;5.20;;;;;;;17.84;84.61;98379.19;5032344;28;20112;-51
2021/08/05 02:01:24;;;;;;;41.63;37.05;;;;;;;18.10;85.06;98372.19;5032563;28;20021;-50
2021/08/05 02:04:12;;;;;;;16.60;15.02;;;;;;;18.23;83.49;98372.78;5047738;28;20029;-51
2021/08/05 02:07:13;;;;;;;7.22;5.72;;;;;;;18.28;83.43;98372.81;5032409;28;20407;-51
2021/08/05 02:10:04;;;;;;;68.43;62.97;;;;;;;18.46;83.52;98375.03;5030959;28;20025;-50
2021/08/05 02:12:58;;;;;;;8.85;7.70;;;;;;;18.74;83.45;98375.66;5032312;28;20376;-50
2021/08/05 02:15:27;;;;;;;8.75;6.10;;;;;;;18.93;83.48;98384.81;5029113;28;20116;-51
2021/08/05 02:17:54;;;;;;;70.30;64.57;;;;;;;19.16;83.11;98378.19;5030771;28;20419;-51
2021/08/05 02:20:19;;;;;;;12.48;11.13;;;;;;;19.54;82.43;98369.97;5047176;28;20056;-52
2021/08/05 02:22:46;;;;;;;8.55;4.15;;;;;;;19.73;81.48;98371.03;5047363;28;20013;-51
2021/08/05 02:25:13;;;;;;;17.63;15.02;;;;;;;19.77;80.87;98363.31;5047336;28;20083;-50
2021/08/05 02:27:40;;;;;;;27.13;24.77;;;;;;;19.83;80.87;98361.47;5032043;28;20449;-51
2021/08/05 02:30:08;;;;;;;14.80;13.52;;;;;;;19.91;80.42;98359.03;5032026;28;20112;-52
2021/08/05 02:32:36;;;;;;;7.15;4.57;;;;;;;19.99;79.78;98346.25;5032029;28;20432;-51
2021/08/05 02:35:05;;;;;;;23.75;21.63;;;;;;;19.95;79.82;98346.78;5046372;28;20033;-51
2021/08/05 02:37:31;;;;;;;15.82;14.38;;;;;;;20.07;79.90;98341.16;5032221;28;20017;-51
2021/08/05 02:39:57;;;;;;;8.73;4.68;;;;;;;20.13;79.37;98340.06;5032105;28;20051;-51
2021/08/05 02:42:23;;;;;;;16.25;7.13;;;;;;;20.05;79.40;98340.63;5030529;28;20120;-51
2021/08/05 02:44:51;;;;;;;23.00;20.90;;;;;;;19.94;79.31;98339.88;5031844;28;20027;-51
2021/08/05 02:47:17;;;;;;;17.10;14.70;;;;;;;19.87;79.33;98346.53;5031752;28;20045;-51
2021/08/05 02:49:43;;;;;;;11.18;10.05;;;;;;;19.94;79.68;98349.69;5031771;28;20033;-51
2021/08/05 02:52:09;;;;;;;27.83;25.73;;;;;;;20.00;79.80;98331.84;5031748;28;20509;-52
2021/08/05 02:54:35;;;;;;;11.20;9.32;;;;;;;20.03;79.41;98326.78;5031653;28;20025;-51
2021/08/05 02:57:01;;;;;;;10.98;5.47;;;;;;;20.18;79.48;98327.81;5031693;28;20037;-51
2021/08/05 02:59:27;;;;;;;27.83;24.92;;;;;;;20.09;78.92;98330.25;5031656;28;20488;-51
2021/08/05 03:01:53;;;;;;;10.43;7.03;;;;;;;19.72;79.11;98334.84;5031615;28;20029;-51
2021/08/05 03:04:19;;;;;;;6.65;4.18;;;;;;;19.30;79.62;98330.59;5031642;28;20099;-51
2021/08/05 03:06:46;;;;;;;21.10;19.15;;;;;;;18.90;79.99;98329.47;5031613;28;20014;-52
2021/08/05 03:09:13;;;;;;;36.88;33.80;;;;;;;18.65;80.73;98319.56;5030282;28;20033;-52
2021/08/05 03:11:39;;;;;;;7.40;6.50;;;;;;;18.44;80.97;98324.00;5031526;28;20028;-51
2021/08/05 03:14:05;;;;;;;5.45;4.97;;;;;;;18.14;81.09;98324.66;5046898;28;20026;-51
2021/08/05 03:16:30;;;;;;;44.95;40.63;;;;;;;17.75;81.86;98323.09;5046805;28;20067;-52
2021/08/05 03:18:56;;;;;;;23.48;21.23;;;;;;;17.86;83.58;98339.91;5046808;28;20021;-51
2021/08/05 03:21:22;;;;;;;28.27;25.80;;;;;;;18.06;83.49;98339.22;5046609;28;20534;-52
2021/08/05 03:23:47;;;;;;;19.65;11.10;;;;;;;18.14;83.11;98345.91;5031508;28;20126;-52
2021/08/05 03:26:13;;;;;;;11.77;10.65;;;;;;;18.13;83.03;98331.84;5031418;28;20503;-52
2021/08/05 03:28:39;;;;;;;17.65;15.88;;;;;;;18.11;82.65;98327.81;5046706;28;20115;-51
2021/08/05 03:31:05;;;;;;;9.25;5.82;;;;;;;17.97;82.72;98330.16;5031462;28;20017;-52
2021/08/05 03:33:30;;;;;;;17.58;10.68;;;;;;;17.77;82.81;98323.66;5046605;28;20402;-51
2021/08/05 03:35:57;;;;;;;14.30;5.38;;;;;;;17.47;82.42;98318.13;5031393;28;20025;-51
2021/08/05 03:38:22;;;;;;;6.75;4.90;;;;;;;17.21;83.06;98322.44;5031326;28;20017;-52
2021/08/05 03:40:48;;;;;;;34.65;30.55;;;;;;;17.23;84.25;98320.34;5046572;28;20048;-51
2021/08/05 03:43:14;;;;;;;26.52;24.02;;;;;;;17.67;85.13;98322.78;5031426;28;20024;-51
2021/08/05 03:45:40;;;;;;;21.20;10.80;;;;;;;18.21;84.23;98314.63;5031375;28;20517;-51
2021/08/05 03:48:05;;;;;;;25.55;23.02;;;;;;;18.68;83.56;98323.53;5035012;28;20035;-52
2021/08/05 03:50:31;;;;;;;25.65;22.10;;;;;;;19.17;82.60;98323.13;5034988;28;20483;-52
2021/08/05 03:52:57;;;;;;;29.23;22.70;;;;;;;19.55;81.51;98313.78;5034953;28;20037;-52
2021/08/05 03:55:22;;;;;;;10.48;7.20;;;;;;;19.69;80.74;98321.25;5034883;28;20488;-51
2021/08/05 03:57:48;;;;;;;30.05;27.05;;;;;;;19.77;80.42;98323.38;5034809;28;20521;-51
2021/08/05 04:00:17;;;;;;;33.25;29.63;;;;;;;19.88;80.00;98329.47;5034656;28;20029;-52
2021/08/05 04:02:43;;;;;;;11.00;3.85;;;;;;;20.06;79.92;98333.44;5034725;28;20108;-52
2021/08/05 04:05:11;;;;;;;13.70;7.78;;;;;;;20.03;79.53;98332.13;5034670;28;20033;-52
2021/08/05 04:07:40;;;;;;;33.63;30.08;;;;;;;20.09;79.10;98327.56;5034653;28;20071;-51
2021/08/05 04:10:06;;;;;;;11.77;6.38;;;;;;;20.29;78.99;98324.03;5049853;28;20040;-51
2021/08/05 04:12:32;;;;;;;29.58;26.55;;;;;;;20.47;78.44;98320.75;5034519;28;20041;-51
2021/08/05 04:14:58;;;;;;;11.25;9.15;;;;;;;20.59;78.01;98325.00;5049791;28;20034;-52
2021/08/05 04:17:24;;;;;;;24.33;21.85;;;;;;;20.45;77.70;98330.91;5033171;28;20036;-52
2021/08/05 04:19:49;;;;;;;13.02;9.00;;;;;;;20.39;77.55;98332.00;5032689;28;20508;-52
2021/08/05 04:22:15;;;;;;;14.73;8.18;;;;;;;20.45;77.63;98333.56;5034456;28;20439;-51
2021/08/05 04:24:40;;;;;;;34.58;31.45;;;;;;;20.53;77.41;98335.66;5034342;28;20022;-51
2021/08/05 04:27:06;;;;;;;8.00;7.20;;;;;;;20.51;77.53;98337.81;5034281;28;20492;-51
2021/08/05 04:29:32;;;;;;;5.88;5.38;;;;;;;20.22;77.09;98332.34;5032881;28;20053;-52
2021/08/05 04:31:59;;;;;;;10.68;7.82;;;;;;;19.70;77.86;98330.84;5049486;28;20059;-52
2021/08/05 04:34:25;;;;;;;47.80;7.72;;;;;;;19.28;78.96;98334.56;5032812;28;20536;-52
2021/08/05 04:36:50;;;;;;;8.30;4.90;;;;;;;18.97;79.95;98347.81;5034105;28;20117;-52
2021/08/05 04:39:19;;;;;;;24.60;21.98;;;;;;;18.84;80.96;98343.03;5034012;28;20387;-51
2021/08/05 04:41:48;;;;;;;21.30;19.15;;;;;;;19.16;80.90;98345.47;5033954;28;20510;-52
2021/08/05 04:44:13;;;;;;;10.98;6.38;;;;;;;19.53;80.55;98344.41;5034009;28;20072;-52
2021/08/05 04:46:39;;;;;;;27.00;24.40;;;;;;;19.66;79.71;98340.41;5033883;28;20443;-52
2021/08/05 04:49:04;;;;;;;12.77;10.88;;;;;;;19.75;79.60;98344.94;5033874;28;20547;-52
2021/08/05 04:51:33;;;;;;;7.38;4.45;;;;;;;19.88;79.19;98340.13;5033771;28;20449;-52
2021/08/05 04:54:02;;;;;;;9.63;7.38;;;;;;;20.06;78.73;98341.41;5033737;28;20022;-52
2021/08/05 04:56:29;;;;;;;21.35;17.88;;;;;;;20.22;78.57;98339.50;5033704;28;20116;-52
2021/08/05 04:58:55;;;;;;;13.85;11.27;;;;;;;20.37;78.44;98341.34;5032679;28;20021;-52
2021/08/05 05:01:21;;;;;;;22.40;19.90;;;;;;;20.53;78.32;98338.31;5033687;28;20510;-52
2021/08/05 05:03:47;;;;;;;14.55;13.25;;;;;;;20.68;77.96;98336.69;5033574;28;20518;-52
2021/08/05 05:06:12;;;;;;;8.60;7.05;;;;;;;20.68;77.99;98342.81;5033491;28;20047;-52
2021/08/05 05:08:39;;;;;;;19.35;13.18;;;;;;;20.58;78.96;98345.50;5033482;28;20029;-52
2021/08/05 05:11:04;;;;;;;29.75;27.05;;;;;;;20.36;79.68;98340.53;5033442;28;20103;-52
2021/08/05 05:13:30;;;;;;;13.93;7.43;;;;;;;19.89;80.41;98341.75;5033396;28;20486;-51
2021/08/05 05:15:56;;;;;;;16.45;14.93;;;;;;;19.59;81.13;98337.22;5048708;28;20065;-51
2021/08/05 05:18:24;;;;;;;9.38;7.18;;;;;;;19.21;81.29;98337.47;5033262;28;20025;-52
2021/08/05 05:20:51;;;;;;;15.73;14.32;;;;;;;19.03;82.15;98340.66;5048340;28;20077;-52
2021/08/05 05:23:17;;;;;;;611.05;548.10;;;;;;;18.84;82.53;98343.81;5033235;28;20108;-52
2021/08/05 05:25:44;;;;;;;296.50;228.68;;;;;;;19.13;83.27;98338.00;5033164;28;20033;-51
2021/08/05 05:28:10;;;;;;;101.40;91.63;;;;;;;19.54;82.45;98332.72;5033129;28;20025;-51
2021/08/05 05:30:37;;;;;;;85.63;74.55;;;;;;;19.89;81.26;98333.75;5033029;28;20101;-52
2021/08/05 05:33:03;;;;;;;64.43;58.78;;;;;;;20.14;80.39;98331.03;5033025;28;20017;-52
2021/08/05 05:35:29;;;;;;;44.90;40.78;;;;;;;20.26;80.14;98337.91;5031650;28;20025;-52
2021/08/05 05:37:56;;;;;;;27.55;24.38;;;;;;;20.46;79.79;98329.81;5032923;28;20407;-52
2021/08/05 05:40:22;;;;;;;26.30;20.40;;;;;;;20.52;79.49;98334.06;5032795;28;20495;-51
2021/08/05 05:42:49;;;;;;;26.90;24.15;;;;;;;20.65;79.14;98331.91;5048142;28;20021;-52
2021/08/05 05:45:17;;;;;;;6.22;4.63;;;;;;;20.87;78.35;98316.31;5032858;28;20075;-51
2021/08/05 05:47:43;;;;;;;10.98;5.00;;;;;;;20.76;77.21;98325.44;5032727;28;20022;-52
2021/08/05 05:50:11;;;;;;;16.15;11.75;;;;;;;20.57;78.37;98325.25;5032692;28;20403;-51
2021/08/05 05:52:38;;;;;;;35.63;32.50;;;;;;;20.82;78.56;98334.22;5032559;28;20017;-52
2021/08/05 05:55:04;;;;;;;24.70;20.25;;;;;;;21.19;77.58;98325.69;5031288;28;20458;-52
2021/08/05 05:57:30;;;;;;;10.00;7.25;;;;;;;21.46;76.86;98335.13;5032565;28;20023;-52
2021/08/05 05:59:56;;;;;;;34.65;31.13;;;;;;;21.36;76.88;98330.63;5047740;28;20025;-51
2021/08/05 06:02:21;;;;;;;16.80;10.50;;;;;;;21.55;77.10;98328.13;5047788;28;20029;-52
2021/08/05 06:04:47;;;;;;;55.38;49.58;;;;;;;21.89;76.59;98329.91;5032414;28;20022;-52
2021/08/05 06:07:13;;;;;;;18.35;14.93;;;;;;;22.06;75.90;98330.25;5032361;28;20041;-52
2021/08/05 06:09:40;;;;;;;26.75;24.05;;;;;;;22.03;76.55;98338.03;5032220;28;20029;-52
2021/08/05 06:12:05;;;;;;;29.02;20.60;;;;;;;21.78;77.08;98339.13;5032331;28;20450;-52
2021/08/05 06:14:31;;;;;;;8.93;5.32;;;;;;;21.50;77.51;98341.50;5032544;28;20026;-51
2021/08/05 06:16:57;;;;;;;6.32;4.15;;;;;;;21.00;77.72;98343.44;5032296;28;20061;-51
2021/08/05 06:19:23;;;;;;;10.23;8.32;;;;;;;20.75;78.66;98351.31;5047087;28;20067;-52
2021/08/05 06:21:48;;;;;;;19.83;10.00;;;;;;;20.73;78.91;98345.47;5032153;28;20059;-51
2021/08/05 06:24:14;;;;;;;89.53;79.88;;;;;;;20.71;79.11;98347.59;5047451;28;20056;-51
2021/08/05 06:26:41;;;;;;;197.43;178.55;;;;;;;20.81;79.42;98352.09;5032384;28;20028;-52
2021/08/05 06:29:10;;;;;;;291.63;265.50;;;;;;;21.24;77.66;98348.88;5047293;28;20034;-52
2021/08/05 06:31:36;;;;;;;19.50;12.50;;;;;;;21.57;77.08;98347.31;5047215;28;20466;-52
2021/08/05 06:34:05;;;;;;;18.40;16.52;;;;;;;21.33;76.68;98340.00;5030680;28;20030;-51
2021/08/05 06:36:32;;;;;;;27.60;14.13;;;;;;;21.19;77.04;98351.56;5031927;28;20017;-52
2021/08/05 06:38:57;;;;;;;15.52;9.77;;;;;;;21.27;77.85;98350.97;5031895;28;20381;-52
2021/08/05 06:41:23;;;;;;;10.18;7.07;;;;;;;21.74;76.43;98344.22;5031831;28;20043;-52
2021/08/05 06:43:49;;;;;;;26.80;18.70;;;;;;;21.99;75.64;98350.38;5031847;28;20030;-52
2021/08/05 06:46:15;;;;;;;13.40;10.85;;;;;;;22.58;75.26;98351.88;5031830;28;20411;-51
2021/08/05 06:48:40;;;;;;;13.35;5.57;;;;;;;23.16;74.16;98353.50;5047109;28;20117;-51
2021/08/05 06:51:08;;;;;;;10.80;7.78;;;;;;;23.75;72.31;98358.47;5047137;28;20017;-52
2021/08/05 06:53:33;;;;;;;9.65;4.18;;;;;;;24.20;70.45;98366.75;5031802;28;20399;-52
2021/08/05 06:55:59;;;;;;;10.93;8.45;;;;;;;24.27;69.90;98359.13;5031719;28;20032;-51
2021/08/05 06:58:28;;;;;;;25.00;21.80;;;;;;;24.49;69.85;98358.44;5031703;28;20372;-51
2021/08/05 07:00:54;;;;;;;23.95;12.70;;;;;;;24.62;69.23;98365.69;5031719;28;20387;-52
2021/08/05 07:03:19;;;;;;;5.47;3.10;;;;;;;24.57;69.40;98367.66;5031660;28;20028;-52
2021/08/05 07:05:45;;;;;;;21.13;16.40;;;;;;;24.54;69.31;98368.28;5031643;28;20099;-52
2021/08/05 07:08:11;;;;;;;9.73;5.88;;;;;;;24.84;68.77;98364.94;5031701;28;20026;-52
2021/08/05 07:10:36;;;;;;;13.68;12.25;;;;;;;25.13;68.01;98371.81;5031641;28;20049;-52
2021/08/05 07:13:03;;;;;;;13.48;7.38;;;;;;;25.09;68.56;98373.50;5046854;28;20025;-51
2021/08/05 07:15:29;;;;;;;34.55;31.65;;;;;;;24.95;68.60;98375.44;5031556;28;20034;-52
2021/08/05 07:17:54;;;;;;;11.60;9.00;;;;;;;24.75;68.69;98385.56;5031594;28;20372;-52
2021/08/05 07:20:20;;;;;;;3.88;2.92;;;;;;;24.57;68.28;98389.94;5031248;28;20077;-52
2021/08/05 07:22:46;;;;;;;10.93;2.85;;;;;;;24.35;69.44;98387.94;5035098;28;20116;-51
2021/08/05 07:25:14;;;;;;;20.80;6.43;;;;;;;24.11;69.79;98385.44;5035471;28;20507;-52
2021/08/05 07:27:42;;;;;;;14.07;6.40;;;;;;;24.07;69.03;98377.19;5035360;28;20041;-52
2021/08/05 07:30:09;;;;;;;18.77;4.43;;;;;;;24.08;69.59;98372.63;5035349;28;20035;-52
2021/08/05 07:32:35;;;;;;;15.52;12.23;;;;;;;24.20;69.43;98369.44;5050665;28;20391;-52
2021/08/05 07:35:01;;;;;;;24.15;12.13;;;;;;;24.48;68.88;98373.69;5035289;28;20444;-51
2021/08/05 07:37:27;;;;;;;10.45;2.60;;;;;;;25.22;66.69;98367.34;5035213;28;20057;-52
2021/08/05 07:39:53;;;;;;;6.35;2.33;;;;;;;26.26;63.92;98371.75;5050388;28;20065;-51
2021/08/05 07:42:19;;;;;;;4.40;1.98;;;;;;;27.07;61.39;98368.56;5050397;28;20116;-52
2021/08/05 07:44:46;;;;;;;7.55;3.60;;;;;;;27.06;60.82;98372.41;5035095;28;20029;-52
2021/08/05 07:47:12;;;;;;;4.13;2.35;;;;;;;26.92;61.80;98370.94;5034998;28;20203;-52
2021/08/05 07:49:38;;;;;;;12.40;8.88;;;;;;;26.54;62.74;98380.38;5034984;28;20030;-52
2021/08/05 07:52:05;;;;;;;7.82;1.75;;;;;;;26.18;62.38;98375.16;5034989;28;20025;-50
2021/08/05 07:54:31;;;;;;;5.28;1.27;;;;;;;25.72;63.26;98382.53;5050183;28;20026;-52
2021/08/05 07:56:57;;;;;;;7.55;4.35;;;;;;;25.42;64.06;98381.41;5034860;28;20024;-51
2021/08/05 07:59:23;;;;;;;9.80;4.05;;;;;;;25.07;65.03;98392.63;5034736;28;20029;-52
2021/08/05 08:01:49;;;;;;;9.00;2.03;;;;;;;24.85;64.89;98390.69;5034741;28;20793;-52
2021/08/05 08:04:15;;;;;;;7.13;2.53;;;;;;;24.79;65.08;98386.53;5034764;28;20049;-51
2021/08/05 08:06:40;;;;;;;8.57;4.88;;;;;;;24.89;65.67;98394.38;5034714;28;20013;-52
2021/08/05 08:09:07;;;;;;;6.78;2.38;;;;;;;24.92;64.71;98388.38;5034647;28;20030;-51
2021/08/05 08:11:33;;;;;;;12.88;6.82;;;;;;;24.74;64.63;98393.91;5049880;28;20018;-52
2021/08/05 08:14:01;;;;;;;7.35;2.55;;;;;;;24.71;65.23;98389.94;5049841;28;20120;-51
2021/08/05 08:16:26;;;;;;;8.43;2.03;;;;;;;24.83;64.89;98392.88;5034503;28;20033;-51
2021/08/05 08:18:53;;;;;;;8.48;1.70;;;;;;;24.65;64.00;98388.41;5034354;28;20025;-51
2021/08/05 08:21:19;;;;;;;5.38;1.50;;;;;;;24.72;65.43;98391.50;5032774;28;20455;-52
2021/08/05 08:23:45;;;;;;;5.85;3.25;;;;;;;24.89;64.05;98386.31;5034457;28;20017;-52
2021/08/05 08:26:11;;;;;;;6.10;1.08;;;;;;;24.99;63.02;98379.94;5032973;28;20029;-52
2021/08/05 08:28:37;;;;;;;5.05;3.03;;;;;;;25.29;63.81;98396.44;5034319;28;20075;-52
2021/08/05 08:31:04;;;;;;;2.53;1.20;;;;;;;25.89;62.13;98400.66;5034292;28;20027;-52
2021/08/05 08:33:29;;;;;;;4.20;1.10;;;;;;;26.01;60.95;98395.50;5048146;28;20068;-51
2021/08/05 08:35:55;;;;;;;10.65;4.07;;;;;;;25.91;61.48;98399.25;5034186;28;20056;-51
2021/08/05 08:38:23;;;;;;;7.30;2.53;;;;;;;26.10;60.86;98390.19;5034064;28;20022;-52
2021/08/05 08:40:57;;;;;;;3.17;0.90;;;;;;;26.41;59.63;98395.50;5049446;28;20112;-52
2021/08/05 08:43:23;;;;;;;5.60;1.00;;;;;;;26.72;58.24;98404.66;5034098;28;20035;-51
2021/08/05 08:45:54;;;;;;;8.85;2.42;;;;;;;26.73;57.63;98401.66;5033990;28;20100;-51
2021/08/05 08:48:20;;;;;;;3.85;2.03;;;;;;;26.99;59.04;98406.28;5049261;28;20528;-52
2021/08/05 08:50:48;;;;;;;13.95;10.57;;;;;;;26.86;59.14;98411.50;5033883;28;20032;-52
2021/08/05 08:53:17;;;;;;;12.40;1.80;;;;;;;26.77;58.37;98401.81;5033799;28;20022;-52
2021/08/05 08:55:47;;;;;;;9.98;1.88;;;;;;;26.65;59.25;98397.03;5049074;28;20076;-51
2021/08/05 08:58:16;;;;;;;9.00;2.15;;;;;;;26.55;58.80;98403.47;5033962;28;20452;-53
2021/08/05 09:00:42;;;;;;;4.50;1.55;;;;;;;26.39;59.36;98407.72;5033650;28;20022;-51
2021/08/05 09:03:07;;;;;;;14.73;2.95;;;;;;;26.13;59.74;98396.84;5033641;28;20037;-51
2021/08/05 09:05:34;;;;;;;7.55;1.63;;;;;;;25.90;59.53;98404.97;5049192;28;20033;-52
2021/08/05 09:08:02;;;;;;;2.75;0.80;;;;;;;25.68;59.47;98405.75;5033592;28;20041;-52
2021/08/05 09:10:29;;;;;;;5.20;1.00;;;;;;;25.43;60.87;98407.16;5033519;28;20053;-52
2021/08/05 09:12:59;;;;;;;13.68;8.82;;;;;;;25.30;61.57;98412.28;5032291;28;20021;-52
2021/08/05 09:15:39;;;;;;;8.77;1.15;;;;;;;25.35;60.04;98421.31;5033688;28;20132;-52
2021/08/05 09:18:32;;;;;;;12.00;1.70;;;;;;;25.35;61.47;98413.25;5033444;28;20029;-52
2021/08/05 09:21:07;;;;;;;3.15;1.17;;;;;;;25.44;60.70;98406.84;5048412;28;20041;-51
2021/08/05 09:23:50;;;;;;;8.23;1.63;;;;;;;25.53;60.44;98401.53;5033312;28;20391;-51
2021/08/05 09:26:23;;;;;;;5.07;1.33;;;;;;;25.75;57.94;98394.56;5048538;28;20029;-52
2021/08/05 09:29:11;;;;;;;5.47;1.50;;;;;;;26.27;58.16;98394.84;5033140;28;20040;-52
2021/08/05 09:31:57;;;;;;;8.52;2.63;;;;;;;26.73;56.86;98390.88;5033106;28;20033;-52
2021/08/05 09:34:32;;;;;;;1.55;0.93;;;;;;;27.58;54.19;98381.56;5033143;28;20080;-52
2021/08/05 09:37:10;;;;;;;16.42;10.80;;;;;;;29.02;54.79;98390.78;5048279;28;20041;-51
2021/08/05 09:39:39;;;;;;;3.92;0.75;;;;;;;31.21;48.23;98390.66;5031643;28;20025;-51
2021/08/05 09:42:06;;;;;;;2.00;1.17;;;;;;;32.35;45.51;98389.31;5033414;28;20026;-51
2021/08/05 09:44:37;;;;;;;7.53;0.75;;;;;;;32.27;43.53;98393.00;5047744;28;20025;-51
2021/08/05 09:47:17;;;;;;;2.42;0.60;;;;;;;31.89;44.35;98394.38;5032776;28;20059;-52
2021/08/05 09:49:51;;;;;;;2.17;0.40;;;;;;;31.73;45.99;98396.28;5032767;28;20025;-51
2021/08/05 09:52:32;;;;;;;;;;;;;;;31.59;51.96;98396.72;5033069;28;20026;-51
2021/08/05 09:55:00;;;;;;;1.75;0.60;;;;;;;30.91;48.64;98392.88;5047990;28;19913;-52
2021/08/05 09:57:37;;;;;;;3.22;1.20;;;;;;;30.61;46.96;98398.53;5032684;28;20018;-51
2021/08/05 10:00:17;;;;;;;1.80;0.40;;;;;;;30.54;47.83;98403.72;5047845;28;20065;-52
2021/08/05 10:02:52;;;;;;;2.22;0.63;;;;;;;30.36;48.22;98405.88;5032524;28;20021;-51
2021/08/05 10:05:24;;;;;;;1.63;0.60;;;;;;;30.39;47.87;98399.78;5047779;28;20029;-51
2021/08/05 10:07:52;;;;;;;3.80;0.45;;;;;;;30.47;48.37;98400.81;5032432;28;20028;-51
2021/08/05 10:10:27;;;;;;;2.90;0.95;;;;;;;30.41;47.08;98394.84;5032368;28;20030;-51
2021/08/05 10:13:00;;;;;;;6.20;2.45;;;;;;;30.60;46.79;98388.03;5032412;28;20025;-52
2021/08/05 10:15:28;;;;;;;7.57;0.88;;;;;;;31.79;45.62;98393.00;5032368;28;20033;-51
2021/08/05 10:17:56;;;;;;;16.02;7.65;;;;;;;33.01;43.54;98393.13;5032223;28;20021;-51
2021/08/05 10:20:24;;;;;;;2.15;0.52;;;;;;;34.07;40.44;98386.59;5031914;28;20443;-52
2021/08/05 10:22:51;;;;;;;4.63;1.10;;;;;;;33.70;40.55;98380.88;5032211;28;20076;-52
2021/08/05 10:25:25;;;;;;;3.78;2.30;;;;;;;33.78;41.46;98374.41;5032119;28;20032;-51
2021/08/05 10:27:57;;;;;;;5.47;0.90;;;;;;;33.22;40.86;98384.66;5032133;28;20030;-51
2021/08/05 10:30:23;;;;;;;0.60;0.47;;;;;;;33.55;40.40;98385.25;5032183;28;20040;-52
2021/08/05 10:32:52;;;;;;;2.58;0.63;;;;;;;34.03;37.94;98378.34;5030743;28;20060;-51
2021/08/05 10:35:17;;;;;;;3.35;0.60;;;;;;;34.60;38.20;98377.66;5047249;28;20017;-51
2021/08/05 10:37:43;;;;;;;3.42;1.15;;;;;;;35.20;35.91;98380.41;5031950;28;20022;-51
2021/08/05 10:40:11;;;;;;;6.68;1.33;;;;;;;35.76;36.17;98375.19;5031841;28;20032;-51
2021/08/05 10:42:37;;;;;;;6.65;4.70;;;;;;;36.04;36.55;98374.63;5031964;28;20036;-51
2021/08/05 10:45:04;;;;;;;0.68;0.68;;;;;;;36.81;35.05;98372.03;5031921;28;20395;-51
2021/08/05 10:47:31;;;;;;;93.68;84.43;;;;;;;37.63;33.83;98363.34;5031863;28;20021;-52
2021/08/05 10:50:00;;;;;;;23.92;21.58;;;;;;;37.81;32.13;98368.81;5031849;28;20026;-50
2021/08/05 10:52:38;;;;;;;5.45;1.50;;;;;;;37.17;35.24;98364.78;5031825;28;20026;-51
2021/08/05 10:55:21;;;;;;;2.72;1.33;;;;;;;36.09;38.41;98363.34;5031482;28;20101;-51
2021/08/05 10:58:12;;;;;;;1.85;1.58;;;;;;;36.40;36.32;98363.97;5031678;28;20096;-51
2021/08/05 11:00:50;;;;;;;6.03;3.90;;;;;;;37.05;36.46;98358.84;5031752;28;20026;-52
2021/08/05 11:03:31;;;;;;;1.38;0.75;;;;;;;37.74;35.82;98352.38;5031750;28;20025;-50
2021/08/05 11:06:02;;;;;;;1.20;0.70;;;;;;;38.23;34.12;98345.31;5031695;28;20063;-52
2021/08/05 11:08:29;;;;;;;2.38;0.75;;;;;;;38.25;33.97;98340.22;5031696;28;20025;-51
2021/08/05 11:11:22;;;;;;;9.05;0.98;;;;;;;37.67;36.38;98346.88;5031712;28;20518;-52
2021/08/05 11:14:00;;;;;;;1.20;0.60;;;;;;;36.69;35.73;98347.75;5031680;28;20116;-52
2021/08/05 11:16:51;;;;;;;1.40;0.35;;;;;;;36.12;35.97;98345.41;5031569;28;20053;-51
2021/08/05 11:19:21;;;;;;;1.05;0.95;;;;;;;35.26;35.81;98347.38;5031262;28;20018;-52
2021/08/05 11:21:47;;;;;;;4.25;1.23;;;;;;;35.87;34.22;98335.06;5031550;28;20057;-51
2021/08/05 11:24:48;;;;;;;2.55;1.90;;;;;;;36.97;35.48;98336.94;5031472;28;20053;-52
2021/08/05 11:27:18;;;;;;;5.50;2.00;;;;;;;37.50;32.89;98335.50;5031239;28;20104;-52
2021/08/05 11:29:48;;;;;;;3.30;1.00;;;;;;;38.24;31.84;98338.69;5031544;28;20025;-51
2021/08/05 11:32:23;;;;;;;2.10;0.60;;;;;;;38.58;31.23;98340.97;5031508;28;20044;-52
2021/08/05 11:35:05;;;;;;;5.07;1.42;;;;;;;38.51;30.40;98329.97;5031462;28;20049;-52